createdAt,value
2019-03-31T00:01:22.931Z,8.60
2019-03-31T00:03:49.375Z,8.50
2019-03-31T00:06:15.997Z,8.50
2019-03-31T00:08:42.453Z,8.50
2019-03-31T00:11:09.242Z,8.50
2019-03-31T00:13:35.661Z,8.50
2019-03-31T00:16:02.744Z,8.40
2019-03-31T00:18:29.218Z,8.30
2019-03-31T00:20:55.560Z,8.30
2019-03-31T00:23:22.162Z,8.30
2019-03-31T00:25:48.526Z,8.30
2019-03-31T00:28:16.041Z,8.20
2019-03-31T00:30:42.902Z,8.20
2019-03-31T00:33:09.527Z,8.20
2019-03-31T00:35:36.283Z,8.20
2019-03-31T00:38:03.232Z,8.10
2019-03-31T00:40:29.868Z,8.00
2019-03-31T00:42:56.205Z,7.90
2019-03-31T00:45:22.869Z,7.80
2019-03-31T00:47:49.643Z,7.90
2019-03-31T00:50:16.607Z,7.90
2019-03-31T00:52:42.956Z,7.90
2019-03-31T00:55:09.579Z,7.90
2019-03-31T00:57:35.961Z,7.90
2019-03-31T01:00:06.979Z,7.80
2019-03-31T01:02:35.532Z,7.70
2019-03-31T01:05:04.670Z,7.80
2019-03-31T01:07:31.579Z,7.70
2019-03-31T01:09:58.057Z,7.60
2019-03-31T01:12:25.391Z,7.50
2019-03-31T01:14:51.946Z,7.50
2019-03-31T01:17:19.664Z,7.60
2019-03-31T01:19:46.224Z,7.50
2019-03-31T01:22:12.722Z,7.40
2019-03-31T01:24:39.192Z,7.40
2019-03-31T01:27:08.700Z,7.50
2019-03-31T01:29:35.267Z,7.50
2019-03-31T01:32:01.793Z,7.50
2019-03-31T01:34:28.101Z,7.50
2019-03-31T01:36:54.850Z,7.50
2019-03-31T01:39:22.679Z,7.50
2019-03-31T01:41:49.635Z,7.60
2019-03-31T01:44:17.086Z,7.60
2019-03-31T01:46:43.417Z,7.50
2019-03-31T01:49:09.775Z,7.50
2019-03-31T01:51:36.079Z,7.50
2019-03-31T01:54:02.995Z,7.50
2019-03-31T01:56:29.663Z,7.60
2019-03-31T01:58:56.643Z,7.60
2019-03-31T02:01:23.499Z,7.50
2019-03-31T02:03:50.113Z,7.50
2019-03-31T02:06:16.457Z,7.50
2019-03-31T02:08:43.061Z,7.40
2019-03-31T02:11:09.447Z,7.40
2019-03-31T02:13:36.034Z,7.40
2019-03-31T02:16:02.386Z,7.40
2019-03-31T02:18:28.714Z,7.40
2019-03-31T02:20:55.064Z,7.40
2019-03-31T02:23:21.788Z,7.50
2019-03-31T02:25:49.549Z,7.60
2019-03-31T02:28:15.975Z,7.50
2019-03-31T02:30:42.289Z,7.60
2019-03-31T02:33:09.063Z,7.60
2019-03-31T02:35:35.382Z,7.60
2019-03-31T02:38:01.746Z,7.60
2019-03-31T02:40:28.112Z,7.50
2019-03-31T02:42:54.563Z,7.50
2019-03-31T02:45:21.326Z,7.60
2019-03-31T02:47:47.698Z,7.50
2019-03-31T02:50:39.998Z,7.50
2019-03-31T02:53:06.364Z,7.50
2019-03-31T02:55:33.027Z,7.60
2019-03-31T02:57:59.670Z,7.50
2019-03-31T03:00:26.270Z,7.40
2019-03-31T03:02:53.804Z,7.40
2019-03-31T03:05:22.285Z,7.40
2019-03-31T03:07:49.901Z,7.40
2019-03-31T03:10:17.513Z,7.40
2019-03-31T03:12:44.095Z,7.50
2019-03-31T03:15:14.263Z,7.50
2019-03-31T03:17:40.991Z,7.60
2019-03-31T03:20:07.760Z,7.70
2019-03-31T03:22:34.111Z,7.70
2019-03-31T03:25:00.531Z,7.90
2019-03-31T03:27:26.921Z,7.90
2019-03-31T03:29:53.273Z,7.90
2019-03-31T03:32:19.677Z,8.00
2019-03-31T03:34:46.032Z,8.00
2019-03-31T03:37:12.411Z,8.10
2019-03-31T03:39:39.122Z,8.10
2019-03-31T03:42:05.838Z,8.20
2019-03-31T03:44:32.284Z,8.20
2019-03-31T03:46:58.618Z,8.30
2019-03-31T03:49:24.955Z,8.30
2019-03-31T03:51:51.312Z,8.20
2019-03-31T03:54:17.977Z,8.20
2019-03-31T03:56:45.382Z,8.20
2019-03-31T03:59:12.227Z,8.30
2019-03-31T04:01:38.851Z,8.20
2019-03-31T04:04:05.196Z,8.30
2019-03-31T04:06:32.147Z,8.30
2019-03-31T04:08:58.453Z,8.40
2019-03-31T04:11:25.797Z,8.30
2019-03-31T04:13:52.555Z,8.30
2019-03-31T04:16:18.968Z,8.20
2019-03-31T04:18:45.337Z,8.30
2019-03-31T04:21:11.704Z,8.20
2019-03-31T04:23:38.066Z,8.20
2019-03-31T04:26:04.441Z,8.20
2019-03-31T04:28:30.805Z,8.10
2019-03-31T04:30:57.273Z,8.00
2019-03-31T04:33:23.628Z,8.00
2019-03-31T04:35:49.990Z,8.00
2019-03-31T04:38:16.326Z,8.00
2019-03-31T04:40:43.530Z,8.00
2019-03-31T04:43:11.209Z,8.00
2019-03-31T04:45:37.578Z,7.80
2019-03-31T04:48:03.967Z,7.60
2019-03-31T04:50:30.289Z,7.60
2019-03-31T04:52:56.636Z,7.40
2019-03-31T04:55:22.938Z,7.40
2019-03-31T04:57:49.338Z,7.40
2019-03-31T05:00:16.082Z,7.30
2019-03-31T05:02:42.416Z,7.30
2019-03-31T05:05:08.786Z,7.10
2019-03-31T05:07:35.097Z,7.10
2019-03-31T05:10:04.277Z,7.20
2019-03-31T05:12:30.958Z,7.20
2019-03-31T05:14:57.385Z,7.10
2019-03-31T05:17:24.034Z,7.10
2019-03-31T05:19:50.387Z,7.10
2019-03-31T05:22:16.719Z,7.10
2019-03-31T05:24:43.052Z,7.00
2019-03-31T05:27:09.488Z,7.10
2019-03-31T05:29:35.810Z,7.20
2019-03-31T05:32:02.660Z,7.10
2019-03-31T05:34:29.362Z,7.20
2019-03-31T05:36:55.677Z,7.20
2019-03-31T05:39:22.349Z,7.30
2019-03-31T05:41:48.983Z,7.40
2019-03-31T05:44:15.330Z,7.40
2019-03-31T05:46:41.632Z,7.40
2019-03-31T05:49:08.399Z,7.30
2019-03-31T05:51:35.123Z,7.40
2019-03-31T05:54:01.867Z,7.40
2019-03-31T05:56:28.506Z,7.60
2019-03-31T05:58:55.143Z,7.70
2019-03-31T06:01:21.717Z,7.70
2019-03-31T06:03:48.033Z,7.90
2019-03-31T06:06:14.382Z,8.20
2019-03-31T06:08:41.084Z,8.40
2019-03-31T06:11:07.790Z,8.60
2019-03-31T06:13:34.186Z,8.70
2019-03-31T06:16:00.812Z,8.80
2019-03-31T06:18:27.150Z,8.90
2019-03-31T06:20:53.879Z,9.00
2019-03-31T06:23:20.196Z,9.10
2019-03-31T06:25:46.678Z,9.20
2019-03-31T06:28:13.375Z,9.30
2019-03-31T06:30:40.172Z,9.40
2019-03-31T06:33:06.538Z,9.60
2019-03-31T06:35:32.843Z,9.80
2019-03-31T06:38:00.951Z,10.00
2019-03-31T06:40:27.263Z,10.20
2019-03-31T06:42:53.656Z,10.40
2019-03-31T06:45:19.977Z,10.60
2019-03-31T06:47:46.551Z,10.90
2019-03-31T06:50:13.331Z,10.90
2019-03-31T06:52:39.789Z,11.10
2019-03-31T06:55:07.265Z,11.20
2019-03-31T06:57:33.595Z,11.50
2019-03-31T06:59:59.974Z,11.60
2019-03-31T07:02:27.558Z,11.70
2019-03-31T07:05:00.903Z,11.80
2019-03-31T07:07:23.813Z,11.90
2019-03-31T07:09:50.498Z,11.90
2019-03-31T07:12:17.157Z,11.70
2019-03-31T07:14:43.797Z,12.00
2019-03-31T07:17:10.120Z,12.10
2019-03-31T07:19:36.449Z,12.40
2019-03-31T07:22:02.827Z,12.50
2019-03-31T07:24:29.122Z,12.80
2019-03-31T07:26:55.485Z,13.00
2019-03-31T07:29:21.796Z,13.00
2019-03-31T07:31:48.430Z,13.20
2019-03-31T07:34:14.785Z,13.30
2019-03-31T07:36:41.230Z,13.20
2019-03-31T07:39:07.946Z,13.30
2019-03-31T07:41:34.734Z,13.50
2019-03-31T07:44:02.196Z,13.60
2019-03-31T07:46:31.406Z,13.70
2019-03-31T07:48:58.009Z,13.70
2019-03-31T07:51:24.359Z,13.70
2019-03-31T07:53:50.696Z,13.80
2019-03-31T07:56:18.440Z,13.70
2019-03-31T07:58:45.170Z,13.70
2019-03-31T08:01:11.450Z,14.10
2019-03-31T08:03:38.077Z,14.10
2019-03-31T08:06:04.872Z,13.90
2019-03-31T08:08:31.595Z,14.00
2019-03-31T08:10:57.924Z,14.00
2019-03-31T08:13:24.561Z,13.70
2019-03-31T08:15:51.198Z,13.80
2019-03-31T08:18:17.842Z,13.80
2019-03-31T08:20:44.188Z,13.90
2019-03-31T08:23:10.803Z,14.30
2019-03-31T08:25:37.168Z,14.40
2019-03-31T08:28:03.465Z,14.20
2019-03-31T08:30:29.817Z,14.30
2019-03-31T08:32:56.441Z,14.40
2019-03-31T08:35:23.078Z,14.40
2019-03-31T08:37:49.420Z,14.70
2019-03-31T08:40:17.222Z,15.00
2019-03-31T08:42:43.575Z,15.20
2019-03-31T08:45:12.209Z,15.30
2019-03-31T08:47:38.680Z,15.40
2019-03-31T08:50:06.549Z,15.60
2019-03-31T08:52:32.908Z,15.80
2019-03-31T08:54:59.561Z,15.80
2019-03-31T08:57:25.890Z,16.00
2019-03-31T08:59:52.276Z,16.00
2019-03-31T09:02:22.937Z,16.10
2019-03-31T09:04:49.315Z,16.10
2019-03-31T09:07:16.025Z,16.00
2019-03-31T09:09:42.377Z,16.00
2019-03-31T09:12:09.018Z,16.20
2019-03-31T09:14:35.836Z,16.40
2019-03-31T09:17:02.746Z,16.50
2019-03-31T09:19:29.435Z,16.70
2019-03-31T09:21:55.833Z,16.50
2019-03-31T09:24:22.155Z,16.40
2019-03-31T09:26:49.699Z,16.30
2019-03-31T09:29:16.046Z,16.20
2019-03-31T09:31:42.358Z,16.30
2019-03-31T09:34:08.802Z,16.30
2019-03-31T09:36:35.208Z,16.40
2019-03-31T09:39:01.812Z,15.70
2019-03-31T09:41:29.148Z,15.60
2019-03-31T09:43:55.824Z,15.60
2019-03-31T09:46:22.167Z,15.30
2019-03-31T09:48:48.912Z,15.40
2019-03-31T09:51:15.533Z,15.20
2019-03-31T09:53:41.965Z,15.10
2019-03-31T09:56:08.277Z,15.10
2019-03-31T09:58:34.679Z,15.10
2019-03-31T10:01:01.003Z,14.60
2019-03-31T10:03:27.378Z,14.50
2019-03-31T10:05:54.126Z,14.60
2019-03-31T10:08:22.268Z,14.80
2019-03-31T10:10:48.759Z,14.90
2019-03-31T10:13:15.196Z,15.10
2019-03-31T10:15:42.342Z,15.00
2019-03-31T10:18:08.968Z,14.70
2019-03-31T10:20:35.423Z,14.60
2019-03-31T10:23:01.730Z,14.70
2019-03-31T10:25:28.372Z,14.90
2019-03-31T10:27:54.736Z,14.70
2019-03-31T10:30:36.661Z,15.00
2019-03-31T10:33:04.805Z,14.70
2019-03-31T10:35:31.262Z,14.60
2019-03-31T10:37:57.705Z,14.80
2019-03-31T10:40:24.057Z,15.00
2019-03-31T10:42:50.417Z,15.10
2019-03-31T10:45:16.773Z,15.30
2019-03-31T10:47:43.470Z,15.30
2019-03-31T10:50:10.043Z,15.40
2019-03-31T10:52:36.395Z,15.00
2019-03-31T10:55:05.707Z,15.60
2019-03-31T10:57:32.374Z,15.70
2019-03-31T10:59:58.715Z,15.80
2019-03-31T11:02:25.042Z,15.90
2019-03-31T11:04:51.451Z,16.20
2019-03-31T11:07:18.099Z,16.40
2019-03-31T11:09:44.750Z,16.70
2019-03-31T11:12:11.086Z,17.10
2019-03-31T11:14:37.751Z,17.30
2019-03-31T11:17:04.433Z,17.20
2019-03-31T11:19:31.829Z,17.50
2019-03-31T11:22:02.696Z,17.70
2019-03-31T11:24:29.424Z,17.80
2019-03-31T11:26:56.121Z,18.30
2019-03-31T11:29:23.719Z,18.40
2019-03-31T11:31:50.476Z,18.90
2019-03-31T11:34:19.655Z,19.10
2019-03-31T11:36:46.346Z,19.00
2019-03-31T11:39:16.143Z,18.80
2019-03-31T11:41:41.269Z,18.30
2019-03-31T11:44:07.564Z,17.90
2019-03-31T11:46:33.953Z,17.40
2019-03-31T11:49:01.346Z,17.20
2019-03-31T11:51:27.698Z,16.00
2019-03-31T11:53:54.399Z,15.60
2019-03-31T11:56:20.729Z,15.60
2019-03-31T11:58:47.093Z,16.00
2019-03-31T12:01:13.456Z,16.10
2019-03-31T12:03:40.118Z,16.40
2019-03-31T12:06:06.419Z,16.40
2019-03-31T12:08:32.795Z,16.50
2019-03-31T12:10:59.112Z,16.80
2019-03-31T12:13:25.441Z,18.20
2019-03-31T12:15:52.091Z,19.00
2019-03-31T12:18:18.386Z,19.90
2019-03-31T12:20:44.783Z,19.20
2019-03-31T12:23:11.150Z,19.00
2019-03-31T12:25:37.471Z,19.00
2019-03-31T12:28:03.820Z,18.80
2019-03-31T12:30:30.136Z,18.50
2019-03-31T12:32:56.937Z,17.50
2019-03-31T12:35:23.296Z,16.60
2019-03-31T12:37:51.984Z,15.70
2019-03-31T12:40:31.821Z,15.70
2019-03-31T12:42:58.581Z,15.80
2019-03-31T12:45:25.277Z,15.50
2019-03-31T12:47:51.685Z,15.30
2019-03-31T12:50:18.089Z,15.30
2019-03-31T12:52:46.977Z,15.10
2019-03-31T12:55:13.740Z,15.10
2019-03-31T12:57:40.071Z,14.70
2019-03-31T13:00:07.196Z,15.00
2019-03-31T13:02:33.976Z,15.20
2019-03-31T13:05:01.650Z,15.90
2019-03-31T13:07:28.291Z,16.40
2019-03-31T13:09:54.602Z,17.50
2019-03-31T13:12:20.944Z,17.90
2019-03-31T13:14:47.276Z,18.00
2019-03-31T13:17:13.936Z,18.10
2019-03-31T13:19:40.357Z,18.10
2019-03-31T13:22:08.015Z,17.30
2019-03-31T13:24:34.354Z,16.60
2019-03-31T13:27:00.688Z,16.50
2019-03-31T13:29:27.320Z,15.80
2019-03-31T13:31:53.944Z,15.20
2019-03-31T13:34:20.705Z,14.60
2019-03-31T13:36:47.017Z,14.50
2019-03-31T13:39:13.379Z,14.60
2019-03-31T13:41:39.688Z,14.40
2019-03-31T13:44:06.433Z,14.00
2019-03-31T13:46:33.065Z,13.80
2019-03-31T13:49:00.000Z,13.60
2019-03-31T13:51:26.733Z,13.50
2019-03-31T13:53:53.203Z,13.30
2019-03-31T13:56:20.224Z,13.40
2019-03-31T13:58:52.520Z,13.20
2019-03-31T14:01:15.347Z,13.00
2019-03-31T14:03:41.701Z,13.10
2019-03-31T14:06:08.110Z,13.40
2019-03-31T14:08:34.465Z,13.30
2019-03-31T14:11:01.093Z,13.70
2019-03-31T14:13:27.943Z,13.90
2019-03-31T14:15:54.366Z,14.00
2019-03-31T14:18:20.770Z,14.10
2019-03-31T14:20:47.438Z,13.70
2019-03-31T14:23:14.190Z,13.70
2019-03-31T14:25:40.839Z,13.40
2019-03-31T14:28:07.655Z,13.50
2019-03-31T14:30:34.107Z,13.70
2019-03-31T14:33:00.834Z,13.50
2019-03-31T14:35:27.549Z,13.70
2019-03-31T14:37:54.844Z,13.80
2019-03-31T14:40:21.578Z,13.60
2019-03-31T14:42:47.930Z,13.60
2019-03-31T14:45:30.274Z,13.50
2019-03-31T14:48:00.026Z,13.60
2019-03-31T14:50:35.740Z,13.30
2019-03-31T14:53:03.600Z,13.20
2019-03-31T14:55:29.946Z,13.10
2019-03-31T14:57:56.257Z,13.30
2019-03-31T15:00:22.597Z,13.30
2019-03-31T15:02:48.942Z,13.30
2019-03-31T15:05:15.608Z,13.40
2019-03-31T15:07:41.984Z,13.30
2019-03-31T15:10:08.442Z,13.10
2019-03-31T15:12:34.766Z,12.80
2019-03-31T15:15:01.405Z,12.70
2019-03-31T15:17:28.109Z,12.60
2019-03-31T15:19:54.604Z,12.60
2019-03-31T15:22:21.079Z,12.70
2019-03-31T15:24:47.790Z,12.70
2019-03-31T15:27:14.587Z,12.60
2019-03-31T15:29:40.999Z,12.50
2019-03-31T15:32:07.397Z,12.60
2019-03-31T15:34:33.723Z,12.60
2019-03-31T15:37:00.081Z,12.60
2019-03-31T15:39:26.581Z,12.60
2019-03-31T15:41:52.982Z,12.50
2019-03-31T15:47:17.529Z,12.20
2019-03-31T15:49:43.863Z,12.00
2019-03-31T15:52:10.229Z,12.10
2019-03-31T15:54:36.697Z,12.10
2019-03-31T15:57:05.781Z,12.20
2019-03-31T15:59:32.674Z,12.10
2019-03-31T16:01:59.067Z,12.10
2019-03-31T16:04:25.362Z,12.20
2019-03-31T16:06:52.010Z,12.20
2019-03-31T16:09:23.615Z,12.20
2019-03-31T16:11:53.629Z,12.20
2019-03-31T16:14:20.035Z,12.10
2019-03-31T16:16:52.075Z,12.10
2019-03-31T16:19:31.357Z,12.10
2019-03-31T16:21:59.526Z,12.10
2019-03-31T16:24:46.182Z,12.10
2019-03-31T16:27:18.147Z,12.00
2019-03-31T16:29:45.277Z,11.90
2019-03-31T16:32:11.676Z,12.00
2019-03-31T16:34:38.649Z,11.90
2019-03-31T16:37:08.261Z,12.00
2019-03-31T16:39:37.903Z,12.00
2019-03-31T16:42:03.327Z,11.90
2019-03-31T16:44:29.677Z,12.00
2019-03-31T16:46:56.378Z,11.90
2019-03-31T16:49:23.115Z,11.90
2019-03-31T16:51:49.901Z,11.80
2019-03-31T16:54:16.598Z,11.80
2019-03-31T16:56:45.975Z,11.70
2019-03-31T16:59:12.726Z,11.60
2019-03-31T17:01:39.638Z,11.60
2019-03-31T17:04:06.396Z,11.50
2019-03-31T17:06:32.815Z,11.50
2019-03-31T17:08:59.523Z,11.50
2019-03-31T17:11:26.187Z,11.50
2019-03-31T17:13:52.897Z,11.30
2019-03-31T17:16:19.294Z,11.40
2019-03-31T17:18:46.395Z,11.40
2019-03-31T17:21:13.988Z,11.40
2019-03-31T17:23:40.449Z,11.30
2019-03-31T17:26:07.071Z,11.20
2019-03-31T17:28:43.451Z,11.20
2019-03-31T17:31:05.889Z,11.10
2019-03-31T17:33:32.750Z,11.10
2019-03-31T17:36:00.112Z,11.10
2019-03-31T17:38:26.751Z,11.00
2019-03-31T17:40:54.187Z,11.00
2019-03-31T17:43:20.858Z,10.90
2019-03-31T17:45:47.896Z,10.90
2019-03-31T17:48:14.970Z,10.90
2019-03-31T17:50:43.478Z,10.90
2019-03-31T17:53:11.252Z,10.90
2019-03-31T17:55:38.019Z,11.00
2019-03-31T17:58:04.662Z,11.00
2019-03-31T18:00:32.096Z,11.00
2019-03-31T18:02:58.858Z,11.00
2019-03-31T18:05:25.201Z,10.90
2019-03-31T18:07:51.608Z,10.90
2019-03-31T18:10:27.361Z,10.90
2019-03-31T18:12:54.253Z,10.80
2019-03-31T18:15:20.753Z,10.70
2019-03-31T18:17:47.294Z,10.60
2019-03-31T18:20:13.684Z,10.50
2019-03-31T18:22:40.516Z,10.30
2019-03-31T18:25:07.832Z,10.20
2019-03-31T18:27:34.284Z,10.00
2019-03-31T18:30:00.663Z,9.90
2019-03-31T18:32:27.143Z,9.70
2019-03-31T18:34:53.948Z,9.60
2019-03-31T18:37:22.390Z,9.50
2019-03-31T18:39:49.109Z,9.40
2019-03-31T18:42:16.551Z,9.30
2019-03-31T18:44:43.929Z,9.30
2019-03-31T18:47:10.315Z,9.20
2019-03-31T18:49:37.422Z,9.10
2019-03-31T18:52:03.907Z,9.00
2019-03-31T18:54:33.462Z,8.90
2019-03-31T18:57:08.227Z,8.90
2019-03-31T18:59:40.052Z,8.80
2019-03-31T19:02:12.497Z,8.80
2019-03-31T19:05:00.638Z,8.70
2019-03-31T19:07:44.492Z,8.70
2019-03-31T19:10:33.890Z,8.60
2019-03-31T19:13:17.994Z,8.50
2019-03-31T19:15:51.134Z,8.50
2019-03-31T19:18:22.763Z,8.40
2019-03-31T19:21:11.147Z,8.40
2019-03-31T19:23:38.457Z,8.30
2019-03-31T19:26:23.245Z,8.30
2019-03-31T19:28:49.931Z,8.20
2019-03-31T19:31:21.624Z,8.20
2019-03-31T19:34:00.291Z,8.10
2019-03-31T19:36:35.931Z,8.00
2019-03-31T19:39:14.801Z,8.00
2019-03-31T19:42:00.243Z,8.00
2019-03-31T19:44:28.576Z,7.90
2019-03-31T19:46:57.928Z,7.80
2019-03-31T19:49:35.327Z,7.80
2019-03-31T19:52:21.909Z,7.80
2019-03-31T19:54:53.601Z,7.70
2019-03-31T19:57:25.160Z,7.70
2019-03-31T19:59:53.567Z,7.60
2019-03-31T20:02:29.105Z,7.60
2019-03-31T20:05:11.056Z,7.60
2019-03-31T20:07:45.242Z,7.50
2019-03-31T20:10:14.468Z,7.50
2019-03-31T20:12:49.112Z,7.40
2019-03-31T20:15:17.800Z,7.40
2019-03-31T20:17:49.184Z,7.30
2019-03-31T20:20:23.991Z,7.30
2019-03-31T20:22:56.123Z,7.30
2019-03-31T20:25:42.722Z,7.30
2019-03-31T20:28:14.936Z,7.20
2019-03-31T20:31:01.810Z,7.20
2019-03-31T20:33:38.993Z,7.10
2019-03-31T20:36:10.225Z,7.10
2019-03-31T20:38:56.925Z,7.00
2019-03-31T20:41:44.243Z,7.00
2019-03-31T20:44:10.955Z,6.90
2019-03-31T20:46:37.432Z,6.90
2019-03-31T20:49:03.765Z,6.90
2019-03-31T20:51:30.547Z,6.90
2019-03-31T20:53:56.889Z,6.90
2019-03-31T20:56:23.287Z,6.90
2019-03-31T20:58:49.959Z,6.90
2019-03-31T21:01:16.601Z,6.90
2019-03-31T21:03:42.941Z,6.90
2019-03-31T21:06:09.555Z,6.90
2019-03-31T21:08:37.756Z,7.00
2019-03-31T21:11:04.793Z,7.00
2019-03-31T21:13:31.436Z,7.00
2019-03-31T21:15:58.163Z,7.00
2019-03-31T21:18:24.556Z,7.00
2019-03-31T21:20:51.225Z,6.90
2019-03-31T21:23:17.596Z,6.90
2019-03-31T21:25:43.933Z,6.90
2019-03-31T21:28:10.568Z,6.90
2019-03-31T21:30:37.370Z,6.90
2019-03-31T21:33:04.011Z,6.80
2019-03-31T21:35:30.362Z,6.80
2019-03-31T21:37:56.832Z,6.80
2019-03-31T21:40:23.204Z,6.70
2019-03-31T21:42:49.675Z,6.70
2019-03-31T21:45:15.990Z,6.60
2019-03-31T21:47:42.403Z,6.60
2019-03-31T21:50:09.070Z,6.50
2019-03-31T21:52:35.396Z,6.50
2019-03-31T21:55:03.498Z,6.50
2019-03-31T21:57:30.199Z,6.50
2019-03-31T21:59:56.557Z,6.40
2019-03-31T22:02:22.896Z,6.30
2019-03-31T22:04:49.218Z,6.30
2019-03-31T22:07:15.568Z,6.30
2019-03-31T22:09:41.914Z,6.30
2019-03-31T22:12:08.258Z,6.30
2019-03-31T22:14:34.917Z,6.30
2019-03-31T22:17:01.567Z,6.20
2019-03-31T22:19:27.911Z,6.20
2019-03-31T22:21:54.348Z,6.30
2019-03-31T22:24:20.677Z,6.20
2019-03-31T22:26:46.989Z,6.20
2019-03-31T22:29:13.844Z,6.20
2019-03-31T22:31:40.178Z,6.10
2019-03-31T22:34:06.650Z,6.10
2019-03-31T22:36:33.016Z,6.00
2019-03-31T22:38:59.680Z,6.00
2019-03-31T22:41:26.035Z,6.00
2019-03-31T22:43:52.729Z,6.00
2019-03-31T22:46:19.067Z,5.90
2019-03-31T22:48:45.426Z,5.90
2019-03-31T22:51:11.860Z,5.90
2019-03-31T22:53:38.181Z,5.90
2019-03-31T22:56:05.102Z,5.90
2019-03-31T22:58:31.434Z,5.90
2019-03-31T23:00:58.197Z,5.90
2019-03-31T23:03:24.818Z,5.80
2019-03-31T23:05:51.457Z,5.80
2019-03-31T23:08:17.925Z,5.70
2019-03-31T23:10:44.629Z,5.70
2019-03-31T23:13:11.782Z,5.70
2019-03-31T23:15:38.423Z,5.70
2019-03-31T23:18:04.777Z,5.60
2019-03-31T23:20:32.234Z,5.60
2019-03-31T23:22:58.967Z,5.70
2019-03-31T23:25:25.388Z,5.60
2019-03-31T23:27:51.836Z,5.60
2019-03-31T23:30:18.253Z,5.60
2019-03-31T23:32:44.582Z,5.50
2019-03-31T23:35:12.014Z,5.50
2019-03-31T23:37:40.650Z,5.40
2019-03-31T23:40:07.505Z,5.40
2019-03-31T23:42:33.850Z,5.40
2019-03-31T23:45:00.551Z,5.40
2019-03-31T23:47:27.055Z,5.40
2019-03-31T23:49:53.441Z,5.40
2019-03-31T23:52:20.166Z,5.40
2019-03-31T23:54:46.518Z,5.40
2019-03-31T23:57:12.943Z,5.50
2019-03-31T23:59:39.549Z,5.50
